sensor_id;sensor_type;location;lat;lon;timestamp;pressure;altitude;pressure_sealevel;temperature;humidity
23164;BME280;31429;42.674;23.350;2022-11-20T00:00:36;94045.25;;;15.05;100.00
23164;BME280;31429;42.674;23.350;2022-11-20T00:01:36;94038.06;;;14.98;100.00
23164;BME280;31429;42.674;23.350;2022-11-20T00:02:37;94043.44;;;14.68;100.00
23164;BME280;31429;42.674;23.350;2022-11-20T00:03:38;94060.94;;;15.15;100.00
23164;BME280;31429;42.674;23.350;2022-11-20T00:04:38;94073.72;;;15.29;100.00
23164;BME280;31429;42.674;23.350;2022-11-20T00:05:41;94080.00;;;15.50;100.00
23164;BME280;31429;42.674;23.350;2022-11-20T00:06:41;94098.28;;;15.72;100.00
23164;BME280;31429;42.674;23.350;2022-11-20T00:07:42;94099.06;;;15.85;100.00
23164;BME280;31429;42.674;23.350;2022-11-20T00:08:43;94082.75;;;15.97;100.00
23164;BME280;31429;42.674;23.350;2022-11-20T00:09:44;94070.88;;;16.07;100.00
23164;BME280;31429;42.674;23.350;2022-11-20T00:10:45;94086.06;;;15.87;100.00
23164;BME280;31429;42.674;23.350;2022-11-20T00:11:45;94101.22;;;15.91;100.00
23164;BME280;31429;42.674;23.350;2022-11-20T00:12:46;94103.72;;;15.80;100.00
23164;BME280;31429;42.674;23.350;2022-11-20T00:13:48;94078.19;;;15.52;100.00
23164;BME280;31429;42.674;23.350;2022-11-20T00:14:49;94095.28;;;15.66;100.00
23164;BME280;31429;42.674;23.350;2022-11-20T00:15:56;94093.78;;;15.87;100.00
23164;BME280;31429;42.674;23.350;2022-11-20T00:16:57;94095.03;;;15.81;100.00
23164;BME280;31429;42.674;23.350;2022-11-20T00:17:58;94099.09;;;15.60;100.00
23164;BME280;31429;42.674;23.350;2022-11-20T00:18:59;94084.84;;;15.67;100.00
23164;BME280;31429;42.674;23.350;2022-11-20T00:19:59;94098.94;;;15.87;100.00
23164;BME280;31429;42.674;23.350;2022-11-20T00:21:02;94099.03;;;15.98;100.00
23164;BME280;31429;42.674;23.350;2022-11-20T00:22:03;94091.66;;;15.68;100.00
23164;BME280;31429;42.674;23.350;2022-11-20T00:23:03;94085.09;;;15.51;100.00
23164;BME280;31429;42.674;23.350;2022-11-20T00:24:05;94080.31;;;15.71;100.00
23164;BME280;31429;42.674;23.350;2022-11-20T00:25:06;94076.19;;;15.68;100.00
23164;BME280;31429;42.674;23.350;2022-11-20T00:26:08;94069.59;;;15.77;100.00
23164;BME280;31429;42.674;23.350;2022-11-20T00:27:09;94057.47;;;15.66;100.00
23164;BME280;31429;42.674;23.350;2022-11-20T00:28:10;94065.69;;;15.71;100.00
23164;BME280;31429;42.674;23.350;2022-11-20T00:29:10;94085.97;;;15.88;100.00
23164;BME280;31429;42.674;23.350;2022-11-20T00:30:11;94081.03;;;15.85;100.00
23164;BME280;31429;42.674;23.350;2022-11-20T00:31:14;94083.56;;;15.98;100.00
23164;BME280;31429;42.674;23.350;2022-11-20T00:32:14;94077.00;;;15.94;100.00
23164;BME280;31429;42.674;23.350;2022-11-20T00:33:15;94057.94;;;15.46;100.00
23164;BME280;31429;42.674;23.350;2022-11-20T00:34:16;94061.69;;;15.55;100.00
23164;BME280;31429;42.674;23.350;2022-11-20T00:35:16;94074.66;;;15.53;100.00
23164;BME280;31429;42.674;23.350;2022-11-20T00:36:20;94077.53;;;15.61;100.00
23164;BME280;31429;42.674;23.350;2022-11-20T00:37:21;94068.53;;;15.41;100.00
23164;BME280;31429;42.674;23.350;2022-11-20T00:38:22;94034.34;;;15.27;100.00
23164;BME280;31429;42.674;23.350;2022-11-20T00:39:22;94055.00;;;15.52;100.00
23164;BME280;31429;42.674;23.350;2022-11-20T00:40:23;94066.09;;;15.52;100.00
23164;BME280;31429;42.674;23.350;2022-11-20T00:41:24;94064.31;;;15.78;100.00
23164;BME280;31429;42.674;23.350;2022-11-20T00:42:25;94042.44;;;15.84;100.00
23164;BME280;31429;42.674;23.350;2022-11-20T00:43:26;94035.38;;;15.62;100.00
23164;BME280;31429;42.674;23.350;2022-11-20T00:44:26;94065.66;;;15.84;100.00
23164;BME280;31429;42.674;23.350;2022-11-20T00:45:27;94094.34;;;15.79;100.00
23164;BME280;31429;42.674;23.350;2022-11-20T00:46:28;94063.53;;;15.65;100.00
23164;BME280;31429;42.674;23.350;2022-11-20T00:47:29;94073.84;;;15.78;100.00
23164;BME280;31429;42.674;23.350;2022-11-20T00:48:29;94076.16;;;15.93;100.00
23164;BME280;31429;42.674;23.350;2022-11-20T00:49:30;94065.16;;;15.91;100.00
23164;BME280;31429;42.674;23.350;2022-11-20T00:50:31;94078.41;;;15.98;100.00
23164;BME280;31429;42.674;23.350;2022-11-20T00:51:33;94075.44;;;15.91;100.00
23164;BME280;31429;42.674;23.350;2022-11-20T00:52:33;94079.31;;;16.09;100.00
23164;BME280;31429;42.674;23.350;2022-11-20T00:53:34;94089.75;;;16.08;100.00
23164;BME280;31429;42.674;23.350;2022-11-20T00:54:35;94085.25;;;15.86;100.00
23164;BME280;31429;42.674;23.350;2022-11-20T00:55:35;94105.19;;;16.21;100.00
23164;BME280;31429;42.674;23.350;2022-11-20T00:56:36;94046.59;;;15.86;100.00
23164;BME280;31429;42.674;23.350;2022-11-20T00:57:36;94078.59;;;16.07;100.00
23164;BME280;31429;42.674;23.350;2022-11-20T00:58:38;94067.44;;;16.43;100.00
23164;BME280;31429;42.674;23.350;2022-11-20T00:59:39;94061.94;;;16.60;100.00
23164;BME280;31429;42.674;23.350;2022-11-20T01:00:40;94084.72;;;16.90;100.00
23164;BME280;31429;42.674;23.350;2022-11-20T01:01:41;94048.72;;;16.52;100.00
23164;BME280;31429;42.674;23.350;2022-11-20T01:02:41;94039.66;;;16.47;100.00
23164;BME280;31429;42.674;23.350;2022-11-20T01:03:43;94070.66;;;16.71;100.00
23164;BME280;31429;42.674;23.350;2022-11-20T01:04:44;94038.03;;;16.70;100.00
23164;BME280;31429;42.674;23.350;2022-11-20T01:05:45;94075.16;;;16.80;100.00
23164;BME280;31429;42.674;23.350;2022-11-20T01:06:47;94083.50;;;16.83;100.00
23164;BME280;31429;42.674;23.350;2022-11-20T01:07:48;94069.59;;;16.97;100.00
23164;BME280;31429;42.674;23.350;2022-11-20T01:08:52;94062.81;;;17.07;100.00
23164;BME280;31429;42.674;23.350;2022-11-20T01:09:53;94087.16;;;17.27;100.00
23164;BME280;31429;42.674;23.350;2022-11-20T01:10:59;94050.53;;;17.33;100.00
23164;BME280;31429;42.674;23.350;2022-11-20T01:11:59;94069.09;;;17.38;100.00
23164;BME280;31429;42.674;23.350;2022-11-20T01:13:00;94049.13;;;17.40;100.00
23164;BME280;31429;42.674;23.350;2022-11-20T01:14:20;94062.19;;;17.49;100.00
23164;BME280;31429;42.674;23.350;2022-11-20T01:15:20;94073.16;;;17.64;100.00
23164;BME280;31429;42.674;23.350;2022-11-20T01:16:22;94030.81;;;17.43;100.00
23164;BME280;31429;42.674;23.350;2022-11-20T01:17:23;94057.19;;;17.70;100.00
23164;BME280;31429;42.674;23.350;2022-11-20T01:18:24;94043.19;;;17.72;100.00
23164;BME280;31429;42.674;23.350;2022-11-20T01:19:24;94042.25;;;17.62;100.00
23164;BME280;31429;42.674;23.350;2022-11-20T01:20:25;94048.84;;;17.66;100.00
23164;BME280;31429;42.674;23.350;2022-11-20T01:21:27;94040.97;;;17.68;100.00
23164;BME280;31429;42.674;23.350;2022-11-20T01:22:30;94027.75;;;17.49;100.00
23164;BME280;31429;42.674;23.350;2022-11-20T01:23:32;94037.91;;;17.63;100.00
23164;BME280;31429;42.674;23.350;2022-11-20T01:24:33;94042.94;;;17.53;100.00
23164;BME280;31429;42.674;23.350;2022-11-20T01:25:34;94047.91;;;17.56;100.00
23164;BME280;31429;42.674;23.350;2022-11-20T01:26:36;94024.97;;;17.63;100.00
23164;BME280;31429;42.674;23.350;2022-11-20T01:27:37;94025.94;;;17.84;100.00
23164;BME280;31429;42.674;23.350;2022-11-20T01:28:40;94022.03;;;18.01;100.00
23164;BME280;31429;42.674;23.350;2022-11-20T01:29:40;94030.44;;;18.14;100.00
23164;BME280;31429;42.674;23.350;2022-11-20T01:30:41;94014.81;;;18.15;100.00
23164;BME280;31429;42.674;23.350;2022-11-20T01:31:42;94045.03;;;18.15;100.00
23164;BME280;31429;42.674;23.350;2022-11-20T01:32:43;94061.41;;;18.04;100.00
23164;BME280;31429;42.674;23.350;2022-11-20T01:33:44;94019.91;;;17.95;100.00
23164;BME280;31429;42.674;23.350;2022-11-20T01:34:45;94020.25;;;18.12;100.00
23164;BME280;31429;42.674;23.350;2022-11-20T01:35:46;94025.75;;;18.19;100.00
23164;BME280;31429;42.674;23.350;2022-11-20T01:36:47;94041.59;;;18.25;100.00
23164;BME280;31429;42.674;23.350;2022-11-20T01:37:49;94017.16;;;18.29;100.00
23164;BME280;31429;42.674;23.350;2022-11-20T01:38:51;94004.00;;;18.21;100.00
23164;BME280;31429;42.674;23.350;2022-11-20T01:39:52;93996.97;;;18.01;100.00
23164;BME280;31429;42.674;23.350;2022-11-20T01:40:54;94019.31;;;18.13;100.00
23164;BME280;31429;42.674;23.350;2022-11-20T01:41:56;94022.47;;;18.17;100.00
23164;BME280;31429;42.674;23.350;2022-11-20T01:43:18;94015.28;;;18.20;100.00
23164;BME280;31429;42.674;23.350;2022-11-20T01:44:40;94022.47;;;18.06;100.00
23164;BME280;31429;42.674;23.350;2022-11-20T01:46:03;94022.25;;;17.98;100.00
23164;BME280;31429;42.674;23.350;2022-11-20T01:47:05;94028.72;;;17.92;100.00
23164;BME280;31429;42.674;23.350;2022-11-20T01:48:07;94043.66;;;17.77;100.00
23164;BME280;31429;42.674;23.350;2022-11-20T01:49:10;94026.28;;;17.68;100.00
23164;BME280;31429;42.674;23.350;2022-11-20T01:50:15;93983.00;;;17.48;100.00
23164;BME280;31429;42.674;23.350;2022-11-20T01:51:22;94002.63;;;17.40;100.00
23164;BME280;31429;42.674;23.350;2022-11-20T01:52:27;93997.22;;;17.43;100.00
23164;BME280;31429;42.674;23.350;2022-11-20T01:53:33;93994.09;;;17.61;100.00
23164;BME280;31429;42.674;23.350;2022-11-20T01:54:37;94014.75;;;17.84;100.00
23164;BME280;31429;42.674;23.350;2022-11-20T01:55:41;94025.09;;;17.84;100.00
23164;BME280;31429;42.674;23.350;2022-11-20T01:56:45;94003.81;;;17.36;100.00
23164;BME280;31429;42.674;23.350;2022-11-20T01:57:48;94018.25;;;17.38;100.00
23164;BME280;31429;42.674;23.350;2022-11-20T01:58:51;94017.84;;;17.09;100.00
23164;BME280;31429;42.674;23.350;2022-11-20T01:59:57;94007.53;;;17.20;100.00
23164;BME280;31429;42.674;23.350;2022-11-20T02:00:59;93989.53;;;17.54;100.00
23164;BME280;31429;42.674;23.350;2022-11-20T02:02:00;94023.94;;;17.76;100.00
23164;BME280;31429;42.674;23.350;2022-11-20T02:03:04;93900.09;;;17.07;100.00
23164;BME280;31429;42.674;23.350;2022-11-20T02:04:07;94018.16;;;17.95;100.00
23164;BME280;31429;42.674;23.350;2022-11-20T02:05:16;94009.06;;;18.12;100.00
23164;BME280;31429;42.674;23.350;2022-11-20T02:06:23;94021.28;;;18.21;100.00
23164;BME280;31429;42.674;23.350;2022-11-20T02:07:24;94009.19;;;18.10;100.00
23164;BME280;31429;42.674;23.350;2022-11-20T02:08:25;94029.88;;;18.21;100.00
23164;BME280;31429;42.674;23.350;2022-11-20T02:09:27;93988.97;;;18.04;100.00
23164;BME280;31429;42.674;23.350;2022-11-20T02:10:29;94016.88;;;17.78;100.00
23164;BME280;31429;42.674;23.350;2022-11-20T02:11:30;94029.69;;;17.69;100.00
23164;BME280;31429;42.674;23.350;2022-11-20T02:12:31;94008.41;;;17.65;100.00
23164;BME280;31429;42.674;23.350;2022-11-20T02:13:51;94016.88;;;17.78;100.00
23164;BME280;31429;42.674;23.350;2022-11-20T02:14:51;94025.56;;;17.89;100.00
23164;BME280;31429;42.674;23.350;2022-11-20T02:15:52;94037.19;;;17.94;100.00
23164;BME280;31429;42.674;23.350;2022-11-20T02:16:54;94013.94;;;17.83;100.00
23164;BME280;31429;42.674;23.350;2022-11-20T02:17:55;94040.25;;;17.88;100.00
23164;BME280;31429;42.674;23.350;2022-11-20T02:18:58;94025.94;;;17.84;100.00
23164;BME280;31429;42.674;23.350;2022-11-20T02:19:59;93981.25;;;17.38;100.00
23164;BME280;31429;42.674;23.350;2022-11-20T02:21:04;94031.94;;;17.85;100.00
23164;BME280;31429;42.674;23.350;2022-11-20T02:22:12;94029.44;;;17.94;100.00
23164;BME280;31429;42.674;23.350;2022-11-20T02:23:19;94019.19;;;18.15;100.00
23164;BME280;31429;42.674;23.350;2022-11-20T02:24:25;94026.78;;;18.38;100.00
23164;BME280;31429;42.674;23.350;2022-11-20T02:25:26;94031.13;;;18.38;100.00
23164;BME280;31429;42.674;23.350;2022-11-20T02:26:31;94022.56;;;18.26;100.00
23164;BME280;31429;42.674;23.350;2022-11-20T02:27:33;94047.25;;;18.42;100.00
23164;BME280;31429;42.674;23.350;2022-11-20T02:28:34;94006.97;;;18.06;100.00
23164;BME280;31429;42.674;23.350;2022-11-20T02:29:39;94026.22;;;18.24;100.00
23164;BME280;31429;42.674;23.350;2022-11-20T02:30:41;94039.38;;;18.32;100.00
23164;BME280;31429;42.674;23.350;2022-11-20T02:31:43;94019.84;;;18.28;100.00
23164;BME280;31429;42.674;23.350;2022-11-20T02:32:44;94003.53;;;18.05;100.00
23164;BME280;31429;42.674;23.350;2022-11-20T02:33:45;94034.47;;;18.07;100.00
23164;BME280;31429;42.674;23.350;2022-11-20T02:34:45;94035.28;;;18.18;100.00
23164;BME280;31429;42.674;23.350;2022-11-20T02:35:46;94030.31;;;18.26;100.00
23164;BME280;31429;42.674;23.350;2022-11-20T02:36:49;94039.94;;;18.35;100.00
23164;BME280;31429;42.674;23.350;2022-11-20T02:37:53;94028.28;;;18.41;100.00
23164;BME280;31429;42.674;23.350;2022-11-20T02:38:55;94046.53;;;18.28;100.00
23164;BME280;31429;42.674;23.350;2022-11-20T02:39:57;94024.97;;;17.85;100.00
23164;BME280;31429;42.674;23.350;2022-11-20T02:40:58;94037.19;;;17.94;100.00
23164;BME280;31429;42.674;23.350;2022-11-20T02:42:00;94053.41;;;18.18;100.00
23164;BME280;31429;42.674;23.350;2022-11-20T02:43:01;94042.88;;;18.31;100.00
23164;BME280;31429;42.674;23.350;2022-11-20T02:44:02;94030.91;;;18.30;100.00
23164;BME280;31429;42.674;23.350;2022-11-20T02:45:04;94041.13;;;18.31;100.00
23164;BME280;31429;42.674;23.350;2022-11-20T02:46:06;94049.59;;;18.33;100.00
23164;BME280;31429;42.674;23.350;2022-11-20T02:47:07;94030.13;;;18.18;100.00
23164;BME280;31429;42.674;23.350;2022-11-20T02:48:08;94036.19;;;18.28;100.00
23164;BME280;31429;42.674;23.350;2022-11-20T02:49:09;94055.00;;;18.42;100.00
23164;BME280;31429;42.674;23.350;2022-11-20T02:50:10;94043.34;;;18.47;100.00
23164;BME280;31429;42.674;23.350;2022-11-20T02:51:10;94044.22;;;18.68;100.00
23164;BME280;31429;42.674;23.350;2022-11-20T02:52:11;94052.63;;;18.61;100.00
23164;BME280;31429;42.674;23.350;2022-11-20T02:53:12;94048.56;;;18.68;100.00
23164;BME280;31429;42.674;23.350;2022-11-20T02:54:12;94041.91;;;18.54;100.00
23164;BME280;31429;42.674;23.350;2022-11-20T02:55:14;94060.44;;;18.70;100.00
23164;BME280;31429;42.674;23.350;2022-11-20T02:56:15;94045.97;;;18.68;100.00
23164;BME280;31429;42.674;23.350;2022-11-20T02:57:16;94056.59;;;18.65;100.00
23164;BME280;31429;42.674;23.350;2022-11-20T02:58:17;94048.47;;;18.69;100.00
23164;BME280;31429;42.674;23.350;2022-11-20T02:59:17;94058.19;;;18.77;100.00
23164;BME280;31429;42.674;23.350;2022-11-20T03:00:18;94076.28;;;18.88;100.00
23164;BME280;31429;42.674;23.350;2022-11-20T03:01:19;94034.41;;;18.51;100.00
23164;BME280;31429;42.674;23.350;2022-11-20T03:02:20;94053.34;;;18.52;100.00
23164;BME280;31429;42.674;23.350;2022-11-20T03:03:20;94054.13;;;18.63;100.00
23164;BME280;31429;42.674;23.350;2022-11-20T03:04:21;94067.88;;;18.75;100.00
23164;BME280;31429;42.674;23.350;2022-11-20T03:05:22;94079.94;;;18.85;100.00
23164;BME280;31429;42.674;23.350;2022-11-20T03:06:23;94065.03;;;18.78;100.00
23164;BME280;31429;42.674;23.350;2022-11-20T03:07:23;94058.38;;;18.64;100.00
23164;BME280;31429;42.674;23.350;2022-11-20T03:08:24;94076.22;;;18.78;100.00
23164;BME280;31429;42.674;23.350;2022-11-20T03:09:25;94081.22;;;18.91;100.00
23164;BME280;31429;42.674;23.350;2022-11-20T03:10:27;94066.38;;;18.93;100.00
23164;BME280;31429;42.674;23.350;2022-11-20T03:11:28;94070.16;;;18.89;100.00
23164;BME280;31429;42.674;23.350;2022-11-20T03:12:29;94083.22;;;18.87;100.00
23164;BME280;31429;42.674;23.350;2022-11-20T03:13:29;94074.19;;;18.82;100.00
23164;BME280;31429;42.674;23.350;2022-11-20T03:14:30;94058.81;;;18.69;100.00
23164;BME280;31429;42.674;23.350;2022-11-20T03:15:31;94043.50;;;18.77;100.00
23164;BME280;31429;42.674;23.350;2022-11-20T03:16:32;94076.63;;;18.94;100.00
23164;BME280;31429;42.674;23.350;2022-11-20T03:17:33;94075.75;;;18.73;100.00
23164;BME280;31429;42.674;23.350;2022-11-20T03:18:33;94077.16;;;18.77;100.00
23164;BME280;31429;42.674;23.350;2022-11-20T03:19:34;94066.38;;;18.61;100.00
23164;BME280;31429;42.674;23.350;2022-11-20T03:20:34;94082.38;;;18.66;100.00
23164;BME280;31429;42.674;23.350;2022-11-20T03:21:35;94081.22;;;18.48;100.00
23164;BME280;31429;42.674;23.350;2022-11-20T03:22:36;94094.06;;;18.50;100.00
23164;BME280;31429;42.674;23.350;2022-11-20T03:23:37;94086.75;;;18.55;100.00
23164;BME280;31429;42.674;23.350;2022-11-20T03:24:38;94086.91;;;18.53;100.00
23164;BME280;31429;42.674;23.350;2022-11-20T03:25:40;94083.25;;;18.22;100.00
23164;BME280;31429;42.674;23.350;2022-11-20T03:26:41;94096.53;;;18.40;100.00
23164;BME280;31429;42.674;23.350;2022-11-20T03:27:42;94083.94;;;18.47;100.00
23164;BME280;31429;42.674;23.350;2022-11-20T03:28:46;94090.03;;;18.57;100.00
23164;BME280;31429;42.674;23.350;2022-11-20T03:29:47;94082.66;;;18.41;100.00
23164;BME280;31429;42.674;23.350;2022-11-20T03:30:48;94087.00;;;18.52;100.00
23164;BME280;31429;42.674;23.350;2022-11-20T03:31:48;94096.50;;;18.62;100.00
23164;BME280;31429;42.674;23.350;2022-11-20T03:32:52;94065.34;;;18.42;100.00
23164;BME280;31429;42.674;23.350;2022-11-20T03:33:53;94103.56;;;18.60;100.00
23164;BME280;31429;42.674;23.350;2022-11-20T03:34:54;94105.78;;;18.65;100.00
23164;BME280;31429;42.674;23.350;2022-11-20T03:36:01;94091.06;;;18.65;100.00
23164;BME280;31429;42.674;23.350;2022-11-20T03:37:01;94064.75;;;18.60;100.00
23164;BME280;31429;42.674;23.350;2022-11-20T03:38:02;94079.66;;;18.68;100.00
23164;BME280;31429;42.674;23.350;2022-11-20T03:39:03;94081.94;;;18.82;100.00
23164;BME280;31429;42.674;23.350;2022-11-20T03:40:04;94084.16;;;18.55;100.00
23164;BME280;31429;42.674;23.350;2022-11-20T03:41:10;94092.84;;;18.76;100.00
23164;BME280;31429;42.674;23.350;2022-11-20T03:42:11;94095.66;;;18.62;100.00
23164;BME280;31429;42.674;23.350;2022-11-20T03:43:31;94102.97;;;18.46;100.00
23164;BME280;31429;42.674;23.350;2022-11-20T03:44:33;94111.94;;;18.53;100.00
23164;BME280;31429;42.674;23.350;2022-11-20T03:45:33;94105.69;;;18.66;100.00
23164;BME280;31429;42.674;23.350;2022-11-20T03:46:34;94120.84;;;18.71;100.00
23164;BME280;31429;42.674;23.350;2022-11-20T03:47:35;94100.47;;;18.77;100.00
23164;BME280;31429;42.674;23.350;2022-11-20T03:48:36;94112.63;;;18.66;100.00
23164;BME280;31429;42.674;23.350;2022-11-20T03:49:36;94115.09;;;18.56;100.00
23164;BME280;31429;42.674;23.350;2022-11-20T03:50:37;94102.06;;;18.35;100.00
23164;BME280;31429;42.674;23.350;2022-11-20T03:51:37;94106.78;;;18.53;100.00
23164;BME280;31429;42.674;23.350;2022-11-20T03:52:38;94108.06;;;18.47;100.00
23164;BME280;31429;42.674;23.350;2022-11-20T03:53:39;94079.59;;;18.36;100.00
23164;BME280;31429;42.674;23.350;2022-11-20T03:54:40;94104.75;;;18.56;100.00
23164;BME280;31429;42.674;23.350;2022-11-20T03:55:41;94093.66;;;18.65;100.00
23164;BME280;31429;42.674;23.350;2022-11-20T03:56:43;94089.06;;;18.69;100.00
23164;BME280;31429;42.674;23.350;2022-11-20T03:57:43;94104.38;;;18.72;100.00
23164;BME280;31429;42.674;23.350;2022-11-20T03:58:44;94109.34;;;18.64;100.00
23164;BME280;31429;42.674;23.350;2022-11-20T03:59:45;94106.13;;;18.71;100.00
23164;BME280;31429;42.674;23.350;2022-11-20T04:00:45;94086.13;;;18.62;100.00
23164;BME280;31429;42.674;23.350;2022-11-20T04:01:46;94099.69;;;18.44;100.00
23164;BME280;31429;42.674;23.350;2022-11-20T04:02:46;94107.94;;;18.37;100.00
23164;BME280;31429;42.674;23.350;2022-11-20T04:03:47;94091.25;;;18.30;100.00
23164;BME280;31429;42.674;23.350;2022-11-20T04:04:48;94092.53;;;18.47;100.00
23164;BME280;31429;42.674;23.350;2022-11-20T04:05:49;94094.53;;;18.55;100.00
23164;BME280;31429;42.674;23.350;2022-11-20T04:06:49;94098.75;;;18.45;100.00
23164;BME280;31429;42.674;23.350;2022-11-20T04:07:50;94093.84;;;18.53;100.00
23164;BME280;31429;42.674;23.350;2022-11-20T04:08:50;94086.84;;;18.42;100.00
23164;BME280;31429;42.674;23.350;2022-11-20T04:09:51;94111.31;;;18.71;100.00
23164;BME280;31429;42.674;23.350;2022-11-20T04:10:52;94090.25;;;18.65;100.00
23164;BME280;31429;42.674;23.350;2022-11-20T04:11:54;94105.09;;;18.63;100.00
23164;BME280;31429;42.674;23.350;2022-11-20T04:12:55;94092.03;;;18.64;100.00
23164;BME280;31429;42.674;23.350;2022-11-20T04:13:57;94104.09;;;18.86;100.00
23164;BME280;31429;42.674;23.350;2022-11-20T04:14:58;94109.97;;;18.88;100.00
23164;BME280;31429;42.674;23.350;2022-11-20T04:15:59;94095.94;;;18.59;100.00
23164;BME280;31429;42.674;23.350;2022-11-20T04:16:59;94093.69;;;18.54;100.00
23164;BME280;31429;42.674;23.350;2022-11-20T04:18:00;94098.41;;;18.49;100.00
23164;BME280;31429;42.674;23.350;2022-11-20T04:19:02;94104.06;;;18.54;100.00
23164;BME280;31429;42.674;23.350;2022-11-20T04:20:04;94107.13;;;18.48;100.00
23164;BME280;31429;42.674;23.350;2022-11-20T04:21:06;94099.47;;;18.47;100.00
23164;BME280;31429;42.674;23.350;2022-11-20T04:22:07;94115.34;;;18.64;100.00
23164;BME280;31429;42.674;23.350;2022-11-20T04:23:07;94110.19;;;18.53;100.00
23164;BME280;31429;42.674;23.350;2022-11-20T04:24:08;94111.91;;;18.75;100.00
23164;BME280;31429;42.674;23.350;2022-11-20T04:25:10;94098.13;;;18.74;100.00
23164;BME280;31429;42.674;23.350;2022-11-20T04:26:12;94105.88;;;18.74;100.00
23164;BME280;31429;42.674;23.350;2022-11-20T04:27:14;94099.78;;;18.75;100.00
23164;BME280;31429;42.674;23.350;2022-11-20T04:28:15;94098.00;;;18.65;100.00
23164;BME280;31429;42.674;23.350;2022-11-20T04:29:15;94105.78;;;18.76;100.00
23164;BME280;31429;42.674;23.350;2022-11-20T04:30:16;94110.25;;;18.74;100.00
23164;BME280;31429;42.674;23.350;2022-11-20T04:31:19;94108.69;;;18.82;100.00
23164;BME280;31429;42.674;23.350;2022-11-20T04:32:20;94104.59;;;18.69;100.00
23164;BME280;31429;42.674;23.350;2022-11-20T04:33:20;94105.91;;;18.63;98.13
23164;BME280;31429;42.674;23.350;2022-11-20T04:34:21;94120.03;;;18.59;99.59
23164;BME280;31429;42.674;23.350;2022-11-20T04:35:22;94110.63;;;18.47;100.00
23164;BME280;31429;42.674;23.350;2022-11-20T04:36:24;94118.03;;;18.63;100.00
23164;BME280;31429;42.674;23.350;2022-11-20T04:37:24;94114.47;;;18.75;100.00
23164;BME280;31429;42.674;23.350;2022-11-20T04:38:25;94114.50;;;18.64;100.00
23164;BME280;31429;42.674;23.350;2022-11-20T04:39:26;94118.03;;;18.63;100.00
23164;BME280;31429;42.674;23.350;2022-11-20T04:40:27;94125.81;;;18.52;100.00
23164;BME280;31429;42.674;23.350;2022-11-20T04:41:30;94099.81;;;18.42;100.00
23164;BME280;31429;42.674;23.350;2022-11-20T04:42:32;94115.09;;;18.67;100.00
23164;BME280;31429;42.674;23.350;2022-11-20T04:43:33;94124.63;;;18.67;100.00
23164;BME280;31429;42.674;23.350;2022-11-20T04:44:34;94127.72;;;18.50;100.00
23164;BME280;31429;42.674;23.350;2022-11-20T04:45:34;94101.59;;;18.42;100.00
23164;BME280;31429;42.674;23.350;2022-11-20T04:46:37;94114.50;;;18.64;100.00
23164;BME280;31429;42.674;23.350;2022-11-20T04:47:37;94091.63;;;18.15;100.00
23164;BME280;31429;42.674;23.350;2022-11-20T04:48:38;94083.97;;;18.24;100.00
23164;BME280;31429;42.674;23.350;2022-11-20T04:49:39;94106.88;;;18.51;100.00
23164;BME280;31429;42.674;23.350;2022-11-20T04:50:40;94103.66;;;18.48;100.00
23164;BME280;31429;42.674;23.350;2022-11-20T04:51:41;94106.06;;;18.51;100.00
23164;BME280;31429;42.674;23.350;2022-11-20T04:52:41;94096.66;;;18.50;100.00
23164;BME280;31429;42.674;23.350;2022-11-20T04:53:42;94091.00;;;18.45;100.00
23164;BME280;31429;42.674;23.350;2022-11-20T04:54:43;94094.38;;;18.45;100.00
23164;BME280;31429;42.674;23.350;2022-11-20T04:55:43;94093.97;;;18.18;100.00
23164;BME280;31429;42.674;23.350;2022-11-20T04:56:44;94096.31;;;18.32;100.00
23164;BME280;31429;42.674;23.350;2022-11-20T04:57:49;94098.03;;;18.54;100.00
23164;BME280;31429;42.674;23.350;2022-11-20T04:58:50;94104.75;;;18.45;100.00
23164;BME280;31429;42.674;23.350;2022-11-20T04:59:51;94092.63;;;18.57;100.00
23164;BME280;31429;42.674;23.350;2022-11-20T05:00:52;94094.28;;;18.58;100.00
23164;BME280;31429;42.674;23.350;2022-11-20T05:01:52;94093.81;;;18.64;100.00
23164;BME280;31429;42.674;23.350;2022-11-20T05:02:53;94104.19;;;18.53;100.00
23164;BME280;31429;42.674;23.350;2022-11-20T05:03:54;94081.41;;;18.13;100.00
23164;BME280;31429;42.674;23.350;2022-11-20T05:04:54;94061.88;;;18.09;100.00
23164;BME280;31429;42.674;23.350;2022-11-20T05:05:55;94075.47;;;18.22;100.00
23164;BME280;31429;42.674;23.350;2022-11-20T05:06:56;94076.44;;;18.32;100.00
23164;BME280;31429;42.674;23.350;2022-11-20T05:07:56;94069.25;;;18.25;100.00
23164;BME280;31429;42.674;23.350;2022-11-20T05:08:58;94082.66;;;18.41;100.00
23164;BME280;31429;42.674;23.350;2022-11-20T05:09:58;94082.41;;;18.55;100.00
23164;BME280;31429;42.674;23.350;2022-11-20T05:11:00;94092.28;;;18.61;100.00
23164;BME280;31429;42.674;23.350;2022-11-20T05:12:01;94069.50;;;18.33;100.00
23164;BME280;31429;42.674;23.350;2022-11-20T05:13:03;94077.34;;;18.43;100.00
23164;BME280;31429;42.674;23.350;2022-11-20T05:14:04;94084.50;;;18.61;100.00
23164;BME280;31429;42.674;23.350;2022-11-20T05:15:05;94085.22;;;18.63;100.00
23164;BME280;31429;42.674;23.350;2022-11-20T05:16:08;94070.41;;;18.43;100.00
23164;BME280;31429;42.674;23.350;2022-11-20T05:17:10;94065.34;;;18.42;100.00
23164;BME280;31429;42.674;23.350;2022-11-20T05:18:11;94055.94;;;18.41;100.00
23164;BME280;31429;42.674;23.350;2022-11-20T05:19:11;94066.34;;;18.72;100.00